sensor_id;sensor_type;location;lat;lon;timestamp;P1;durP1;ratioP1;P2;durP2;ratioP2
66143;SDS011;52947;50.842;6.084;2024-01-30T00:01:38;17.42;;;10.43;;
66143;SDS011;52947;50.842;6.084;2024-01-30T00:04:06;11.95;;;8.32;;
66143;SDS011;52947;50.842;6.084;2024-01-30T00:06:34;18.30;;;9.20;;
66143;SDS011;52947;50.842;6.084;2024-01-30T00:09:02;13.10;;;8.27;;
66143;SDS011;52947;50.842;6.084;2024-01-30T00:11:31;14.95;;;8.15;;
66143;SDS011;52947;50.842;6.084;2024-01-30T00:14:00;17.25;;;8.02;;
66143;SDS011;52947;50.842;6.084;2024-01-30T00:16:29;14.02;;;8.00;;
66143;SDS011;52947;50.842;6.084;2024-01-30T00:18:57;17.60;;;8.45;;
66143;SDS011;52947;50.842;6.084;2024-01-30T00:21:26;13.20;;;7.72;;
66143;SDS011;52947;50.842;6.084;2024-01-30T00:23:54;14.18;;;8.15;;
66143;SDS011;52947;50.842;6.084;2024-01-30T00:26:22;14.07;;;7.80;;
66143;SDS011;52947;50.842;6.084;2024-01-30T00:28:50;14.77;;;8.82;;
66143;SDS011;52947;50.842;6.084;2024-01-30T00:31:19;12.65;;;7.75;;
66143;SDS011;52947;50.842;6.084;2024-01-30T00:33:47;14.23;;;8.05;;
66143;SDS011;52947;50.842;6.084;2024-01-30T00:36:15;11.68;;;7.43;;
66143;SDS011;52947;50.842;6.084;2024-01-30T00:38:43;13.30;;;7.65;;
66143;SDS011;52947;50.842;6.084;2024-01-30T00:41:11;16.83;;;8.38;;
66143;SDS011;52947;50.842;6.084;2024-01-30T00:43:39;11.70;;;7.50;;
66143;SDS011;52947;50.842;6.084;2024-01-30T00:46:07;12.93;;;7.32;;
66143;SDS011;52947;50.842;6.084;2024-01-30T00:48:37;11.15;;;7.28;;
66143;SDS011;52947;50.842;6.084;2024-01-30T00:51:05;10.02;;;6.90;;
66143;SDS011;52947;50.842;6.084;2024-01-30T00:53:33;10.32;;;7.18;;
66143;SDS011;52947;50.842;6.084;2024-01-30T00:56:01;11.45;;;7.43;;
66143;SDS011;52947;50.842;6.084;2024-01-30T00:58:30;12.05;;;7.10;;
66143;SDS011;52947;50.842;6.084;2024-01-30T01:00:58;11.80;;;7.82;;
66143;SDS011;52947;50.842;6.084;2024-01-30T01:03:26;13.93;;;7.60;;
66143;SDS011;52947;50.842;6.084;2024-01-30T01:05:55;14.80;;;6.90;;
66143;SDS011;52947;50.842;6.084;2024-01-30T01:08:23;11.57;;;6.65;;
66143;SDS011;52947;50.842;6.084;2024-01-30T01:10:51;9.15;;;6.90;;
66143;SDS011;52947;50.842;6.084;2024-01-30T01:13:19;9.10;;;6.28;;
66143;SDS011;52947;50.842;6.084;2024-01-30T01:15:47;10.93;;;6.15;;
66143;SDS011;52947;50.842;6.084;2024-01-30T01:18:15;9.68;;;6.95;;
66143;SDS011;52947;50.842;6.084;2024-01-30T01:20:43;9.77;;;6.85;;
66143;SDS011;52947;50.842;6.084;2024-01-30T01:23:12;14.90;;;7.13;;
66143;SDS011;52947;50.842;6.084;2024-01-30T01:25:40;13.18;;;7.35;;
66143;SDS011;52947;50.842;6.084;2024-01-30T01:28:09;12.88;;;6.97;;
66143;SDS011;52947;50.842;6.084;2024-01-30T01:30:37;9.85;;;6.50;;
66143;SDS011;52947;50.842;6.084;2024-01-30T01:33:05;11.50;;;6.78;;
66143;SDS011;52947;50.842;6.084;2024-01-30T01:35:33;8.45;;;6.60;;
66143;SDS011;52947;50.842;6.084;2024-01-30T01:38:01;9.85;;;7.03;;
66143;SDS011;52947;50.842;6.084;2024-01-30T01:40:31;12.60;;;6.45;;
66143;SDS011;52947;50.842;6.084;2024-01-30T01:43:02;14.65;;;6.38;;
66143;SDS011;52947;50.842;6.084;2024-01-30T01:45:32;7.85;;;5.97;;
66143;SDS011;52947;50.842;6.084;2024-01-30T01:48:00;14.48;;;6.93;;
66143;SDS011;52947;50.842;6.084;2024-01-30T01:50:28;9.88;;;6.22;;
66143;SDS011;52947;50.842;6.084;2024-01-30T01:52:56;10.20;;;6.40;;
66143;SDS011;52947;50.842;6.084;2024-01-30T01:55:25;13.40;;;6.03;;
66143;SDS011;52947;50.842;6.084;2024-01-30T01:57:56;10.88;;;7.15;;
66143;SDS011;52947;50.842;6.084;2024-01-30T02:00:25;10.98;;;6.80;;
66143;SDS011;52947;50.842;6.084;2024-01-30T02:02:53;9.07;;;6.90;;
66143;SDS011;52947;50.842;6.084;2024-01-30T02:05:22;21.48;;;9.05;;
66143;SDS011;52947;50.842;6.084;2024-01-30T02:07:51;13.38;;;6.97;;
66143;SDS011;52947;50.842;6.084;2024-01-30T02:10:20;9.80;;;7.28;;
66143;SDS011;52947;50.842;6.084;2024-01-30T02:12:48;11.52;;;6.85;;
66143;SDS011;52947;50.842;6.084;2024-01-30T02:15:18;13.60;;;7.50;;
66143;SDS011;52947;50.842;6.084;2024-01-30T02:17:46;11.88;;;7.00;;
66143;SDS011;52947;50.842;6.084;2024-01-30T02:20:14;10.85;;;6.65;;
66143;SDS011;52947;50.842;6.084;2024-01-30T02:22:44;11.68;;;6.25;;
66143;SDS011;52947;50.842;6.084;2024-01-30T02:25:12;14.75;;;7.28;;
66143;SDS011;52947;50.842;6.084;2024-01-30T02:27:41;10.07;;;6.53;;
66143;SDS011;52947;50.842;6.084;2024-01-30T02:30:09;10.02;;;6.25;;
66143;SDS011;52947;50.842;6.084;2024-01-30T02:32:38;14.82;;;6.78;;
66143;SDS011;52947;50.842;6.084;2024-01-30T02:35:06;10.93;;;6.25;;
66143;SDS011;52947;50.842;6.084;2024-01-30T02:37:34;8.82;;;5.72;;
66143;SDS011;52947;50.842;6.084;2024-01-30T02:40:04;23.15;;;7.53;;
66143;SDS011;52947;50.842;6.084;2024-01-30T02:42:33;8.77;;;7.00;;
66143;SDS011;52947;50.842;6.084;2024-01-30T02:45:01;10.02;;;6.32;;
66143;SDS011;52947;50.842;6.084;2024-01-30T02:47:29;12.50;;;6.20;;
66143;SDS011;52947;50.842;6.084;2024-01-30T02:49:57;14.20;;;9.15;;
66143;SDS011;52947;50.842;6.084;2024-01-30T02:52:25;10.15;;;6.30;;
66143;SDS011;52947;50.842;6.084;2024-01-30T02:54:53;10.20;;;6.93;;
66143;SDS011;52947;50.842;6.084;2024-01-30T02:57:23;9.00;;;5.75;;
66143;SDS011;52947;50.842;6.084;2024-01-30T02:59:51;14.48;;;6.45;;
66143;SDS011;52947;50.842;6.084;2024-01-30T03:02:19;10.95;;;5.82;;
66143;SDS011;52947;50.842;6.084;2024-01-30T03:04:47;10.75;;;6.05;;
66143;SDS011;52947;50.842;6.084;2024-01-30T03:07:14;10.52;;;6.50;;
66143;SDS011;52947;50.842;6.084;2024-01-30T03:09:43;21.23;;;7.30;;
66143;SDS011;52947;50.842;6.084;2024-01-30T03:12:12;12.70;;;7.05;;
66143;SDS011;52947;50.842;6.084;2024-01-30T03:14:41;10.10;;;6.75;;
66143;SDS011;52947;50.842;6.084;2024-01-30T03:17:09;7.95;;;6.10;;
66143;SDS011;52947;50.842;6.084;2024-01-30T03:19:37;10.63;;;6.05;;
66143;SDS011;52947;50.842;6.084;2024-01-30T03:22:05;10.98;;;6.70;;
66143;SDS011;52947;50.842;6.084;2024-01-30T03:24:33;15.50;;;6.03;;
66143;SDS011;52947;50.842;6.084;2024-01-30T03:27:01;12.13;;;6.70;;
66143;SDS011;52947;50.842;6.084;2024-01-30T03:29:30;11.18;;;6.40;;
66143;SDS011;52947;50.842;6.084;2024-01-30T03:31:59;15.23;;;6.63;;
66143;SDS011;52947;50.842;6.084;2024-01-30T03:34:27;7.85;;;5.30;;
66143;SDS011;52947;50.842;6.084;2024-01-30T03:36:55;9.02;;;6.38;;
66143;SDS011;52947;50.842;6.084;2024-01-30T03:39:24;13.05;;;6.05;;
66143;SDS011;52947;50.842;6.084;2024-01-30T03:41:52;15.40;;;7.30;;
66143;SDS011;52947;50.842;6.084;2024-01-30T03:44:20;11.63;;;6.28;;
66143;SDS011;52947;50.842;6.084;2024-01-30T03:46:48;6.50;;;5.55;;
66143;SDS011;52947;50.842;6.084;2024-01-30T03:49:17;10.98;;;6.05;;
66143;SDS011;52947;50.842;6.084;2024-01-30T03:51:45;13.00;;;7.28;;
66143;SDS011;52947;50.842;6.084;2024-01-30T03:54:14;12.73;;;6.50;;
66143;SDS011;52947;50.842;6.084;2024-01-30T03:56:43;8.52;;;6.32;;
66143;SDS011;52947;50.842;6.084;2024-01-30T03:59:11;12.20;;;6.82;;
66143;SDS011;52947;50.842;6.084;2024-01-30T04:01:39;10.50;;;6.32;;
66143;SDS011;52947;50.842;6.084;2024-01-30T04:04:07;15.73;;;6.97;;
66143;SDS011;52947;50.842;6.084;2024-01-30T04:06:37;10.93;;;6.28;;
66143;SDS011;52947;50.842;6.084;2024-01-30T04:09:05;17.63;;;6.53;;
66143;SDS011;52947;50.842;6.084;2024-01-30T04:11:33;10.88;;;6.50;;
66143;SDS011;52947;50.842;6.084;2024-01-30T04:14:01;13.40;;;6.85;;
66143;SDS011;52947;50.842;6.084;2024-01-30T04:16:29;13.65;;;6.95;;
66143;SDS011;52947;50.842;6.084;2024-01-30T04:18:57;10.07;;;6.40;;
66143;SDS011;52947;50.842;6.084;2024-01-30T04:21:26;7.43;;;6.18;;
66143;SDS011;52947;50.842;6.084;2024-01-30T04:23:55;10.05;;;6.30;;
66143;SDS011;52947;50.842;6.084;2024-01-30T04:26:24;9.80;;;5.95;;
66143;SDS011;52947;50.842;6.084;2024-01-30T04:28:52;12.80;;;6.53;;
66143;SDS011;52947;50.842;6.084;2024-01-30T04:31:20;11.38;;;6.57;;
66143;SDS011;52947;50.842;6.084;2024-01-30T04:33:48;10.35;;;5.82;;
66143;SDS011;52947;50.842;6.084;2024-01-30T04:36:16;10.73;;;6.00;;
66143;SDS011;52947;50.842;6.084;2024-01-30T04:38:44;8.88;;;6.50;;
66143;SDS011;52947;50.842;6.084;2024-01-30T04:41:14;14.25;;;7.43;;
66143;SDS011;52947;50.842;6.084;2024-01-30T04:43:42;9.60;;;5.82;;
66143;SDS011;52947;50.842;6.084;2024-01-30T04:46:10;7.30;;;5.72;;
66143;SDS011;52947;50.842;6.084;2024-01-30T04:48:38;10.82;;;5.60;;
66143;SDS011;52947;50.842;6.084;2024-01-30T04:51:06;13.20;;;6.90;;
66143;SDS011;52947;50.842;6.084;2024-01-30T04:53:34;10.18;;;6.20;;
66143;SDS011;52947;50.842;6.084;2024-01-30T04:56:02;8.68;;;5.72;;
66143;SDS011;52947;50.842;6.084;2024-01-30T04:58:31;14.80;;;7.18;;
66143;SDS011;52947;50.842;6.084;2024-01-30T05:00:59;11.65;;;6.60;;
66143;SDS011;52947;50.842;6.084;2024-01-30T05:03:27;10.18;;;5.43;;
66143;SDS011;52947;50.842;6.084;2024-01-30T05:05:55;8.18;;;5.97;;
66143;SDS011;52947;50.842;6.084;2024-01-30T05:08:23;17.63;;;7.25;;
66143;SDS011;52947;50.842;6.084;2024-01-30T05:10:51;11.55;;;6.03;;
66143;SDS011;52947;50.842;6.084;2024-01-30T05:13:19;12.88;;;6.82;;
66143;SDS011;52947;50.842;6.084;2024-01-30T05:15:49;9.45;;;5.78;;
66143;SDS011;52947;50.842;6.084;2024-01-30T05:18:17;11.13;;;6.97;;
66143;SDS011;52947;50.842;6.084;2024-01-30T05:20:45;9.80;;;6.07;;
66143;SDS011;52947;50.842;6.084;2024-01-30T05:23:13;9.43;;;6.35;;
66143;SDS011;52947;50.842;6.084;2024-01-30T05:25:41;12.50;;;6.25;;
66143;SDS011;52947;50.842;6.084;2024-01-30T05:28:09;12.70;;;6.82;;
66143;SDS011;52947;50.842;6.084;2024-01-30T05:30:37;7.40;;;5.47;;
66143;SDS011;52947;50.842;6.084;2024-01-30T05:33:07;11.50;;;6.18;;
66143;SDS011;52947;50.842;6.084;2024-01-30T05:35:35;10.77;;;6.60;;
66143;SDS011;52947;50.842;6.084;2024-01-30T05:38:03;15.93;;;6.80;;
66143;SDS011;52947;50.842;6.084;2024-01-30T05:40:31;11.38;;;5.97;;
66143;SDS011;52947;50.842;6.084;2024-01-30T05:42:59;10.75;;;7.43;;
66143;SDS011;52947;50.842;6.084;2024-01-30T05:45:29;9.77;;;6.32;;
66143;SDS011;52947;50.842;6.084;2024-01-30T05:47:57;11.57;;;6.05;;
66143;SDS011;52947;50.842;6.084;2024-01-30T05:50:26;9.55;;;6.25;;
66143;SDS011;52947;50.842;6.084;2024-01-30T05:52:55;8.68;;;5.32;;
66143;SDS011;52947;50.842;6.084;2024-01-30T05:55:22;12.05;;;6.63;;
66143;SDS011;52947;50.842;6.084;2024-01-30T05:57:51;10.68;;;5.88;;
66143;SDS011;52947;50.842;6.084;2024-01-30T06:00:19;11.18;;;6.35;;
66143;SDS011;52947;50.842;6.084;2024-01-30T06:02:47;11.82;;;5.90;;
66143;SDS011;52947;50.842;6.084;2024-01-30T06:05:15;11.32;;;6.22;;
66143;SDS011;52947;50.842;6.084;2024-01-30T06:07:45;12.15;;;6.35;;
66143;SDS011;52947;50.842;6.084;2024-01-30T06:10:13;9.63;;;6.25;;
66143;SDS011;52947;50.842;6.084;2024-01-30T06:12:41;10.50;;;6.57;;
66143;SDS011;52947;50.842;6.084;2024-01-30T06:15:10;14.07;;;6.80;;
66143;SDS011;52947;50.842;6.084;2024-01-30T06:17:39;12.85;;;6.88;;
66143;SDS011;52947;50.842;6.084;2024-01-30T06:20:07;11.00;;;6.72;;
66143;SDS011;52947;50.842;6.084;2024-01-30T06:22:35;10.95;;;5.90;;
66143;SDS011;52947;50.842;6.084;2024-01-30T06:25:05;10.50;;;6.18;;
66143;SDS011;52947;50.842;6.084;2024-01-30T06:27:33;10.50;;;7.03;;
66143;SDS011;52947;50.842;6.084;2024-01-30T06:30:01;16.67;;;6.88;;
66143;SDS011;52947;50.842;6.084;2024-01-30T06:32:30;12.98;;;6.78;;
66143;SDS011;52947;50.842;6.084;2024-01-30T06:35:00;10.52;;;6.78;;
66143;SDS011;52947;50.842;6.084;2024-01-30T06:37:29;16.02;;;6.80;;
66143;SDS011;52947;50.842;6.084;2024-01-30T06:39:57;17.65;;;6.93;;
66143;SDS011;52947;50.842;6.084;2024-01-30T06:42:26;16.70;;;7.45;;
66143;SDS011;52947;50.842;6.084;2024-01-30T06:44:54;20.35;;;7.78;;
66143;SDS011;52947;50.842;6.084;2024-01-30T06:47:22;15.20;;;7.60;;
66143;SDS011;52947;50.842;6.084;2024-01-30T06:49:50;11.05;;;6.68;;
66143;SDS011;52947;50.842;6.084;2024-01-30T06:52:19;9.75;;;6.63;;
66143;SDS011;52947;50.842;6.084;2024-01-30T06:54:47;12.20;;;7.13;;
66143;SDS011;52947;50.842;6.084;2024-01-30T06:57:15;16.15;;;7.05;;
66143;SDS011;52947;50.842;6.084;2024-01-30T06:59:44;12.73;;;6.88;;
66143;SDS011;52947;50.842;6.084;2024-01-30T07:02:13;12.73;;;7.57;;
66143;SDS011;52947;50.842;6.084;2024-01-30T07:04:41;16.98;;;7.55;;
66143;SDS011;52947;50.842;6.084;2024-01-30T07:07:13;13.15;;;7.13;;
66143;SDS011;52947;50.842;6.084;2024-01-30T07:09:42;15.52;;;7.75;;
66143;SDS011;52947;50.842;6.084;2024-01-30T07:12:10;12.48;;;8.32;;
66143;SDS011;52947;50.842;6.084;2024-01-30T07:14:38;9.80;;;6.18;;
66143;SDS011;52947;50.842;6.084;2024-01-30T07:17:07;12.38;;;7.00;;
66143;SDS011;52947;50.842;6.084;2024-01-30T07:19:35;9.80;;;6.07;;
66143;SDS011;52947;50.842;6.084;2024-01-30T07:22:04;10.55;;;7.18;;
66143;SDS011;52947;50.842;6.084;2024-01-30T07:24:32;16.17;;;7.60;;
66143;SDS011;52947;50.842;6.084;2024-01-30T07:27:00;13.73;;;6.93;;
66143;SDS011;52947;50.842;6.084;2024-01-30T07:29:28;14.55;;;6.63;;
66143;SDS011;52947;50.842;6.084;2024-01-30T07:31:56;17.90;;;6.45;;
66143;SDS011;52947;50.842;6.084;2024-01-30T07:34:25;13.50;;;7.13;;
66143;SDS011;52947;50.842;6.084;2024-01-30T07:36:54;12.57;;;7.10;;
66143;SDS011;52947;50.842;6.084;2024-01-30T07:39:22;9.70;;;6.03;;
66143;SDS011;52947;50.842;6.084;2024-01-30T07:41:50;10.73;;;6.90;;
66143;SDS011;52947;50.842;6.084;2024-01-30T07:44:18;11.60;;;6.78;;
66143;SDS011;52947;50.842;6.084;2024-01-30T07:46:46;12.88;;;6.22;;
66143;SDS011;52947;50.842;6.084;2024-01-30T07:49:14;15.15;;;7.75;;
66143;SDS011;52947;50.842;6.084;2024-01-30T07:51:43;12.98;;;7.32;;
66143;SDS011;52947;50.842;6.084;2024-01-30T07:54:12;11.07;;;7.20;;
66143;SDS011;52947;50.842;6.084;2024-01-30T07:56:43;17.67;;;7.65;;
66143;SDS011;52947;50.842;6.084;2024-01-30T07:59:11;14.68;;;7.10;;
66143;SDS011;52947;50.842;6.084;2024-01-30T08:01:40;15.05;;;7.68;;
66143;SDS011;52947;50.842;6.084;2024-01-30T08:04:09;9.63;;;6.50;;
66143;SDS011;52947;50.842;6.084;2024-01-30T08:06:37;20.52;;;7.47;;
66143;SDS011;52947;50.842;6.084;2024-01-30T08:09:10;9.30;;;6.57;;
66143;SDS011;52947;50.842;6.084;2024-01-30T08:11:38;11.15;;;6.85;;
66143;SDS011;52947;50.842;6.084;2024-01-30T08:14:06;11.73;;;7.03;;
66143;SDS011;52947;50.842;6.084;2024-01-30T08:16:34;12.02;;;7.38;;
66143;SDS011;52947;50.842;6.084;2024-01-30T08:19:02;11.50;;;7.55;;
66143;SDS011;52947;50.842;6.084;2024-01-30T08:21:30;23.80;;;6.82;;
66143;SDS011;52947;50.842;6.084;2024-01-30T08:24:05;18.25;;;8.18;;
66143;SDS011;52947;50.842;6.084;2024-01-30T08:26:35;13.90;;;7.63;;
66143;SDS011;52947;50.842;6.084;2024-01-30T08:29:03;15.10;;;7.63;;
66143;SDS011;52947;50.842;6.084;2024-01-30T08:31:31;12.88;;;7.40;;
66143;SDS011;52947;50.842;6.084;2024-01-30T08:34:00;17.65;;;7.57;;
66143;SDS011;52947;50.842;6.084;2024-01-30T08:36:28;11.77;;;7.22;;
66143;SDS011;52947;50.842;6.084;2024-01-30T08:38:56;14.30;;;8.50;;
66143;SDS011;52947;50.842;6.084;2024-01-30T08:41:29;14.43;;;7.68;;
66143;SDS011;52947;50.842;6.084;2024-01-30T08:43:58;15.73;;;6.93;;
66143;SDS011;52947;50.842;6.084;2024-01-30T08:46:26;14.35;;;9.32;;
66143;SDS011;52947;50.842;6.084;2024-01-30T08:48:55;14.32;;;8.23;;
66143;SDS011;52947;50.842;6.084;2024-01-30T08:51:23;16.35;;;8.10;;
66143;SDS011;52947;50.842;6.084;2024-01-30T08:53:51;19.23;;;8.00;;
66143;SDS011;52947;50.842;6.084;2024-01-30T08:56:19;14.00;;;7.65;;
66143;SDS011;52947;50.842;6.084;2024-01-30T08:58:47;15.65;;;7.75;;
66143;SDS011;52947;50.842;6.084;2024-01-30T09:01:16;12.70;;;8.15;;
66143;SDS011;52947;50.842;6.084;2024-01-30T09:03:44;13.20;;;7.95;;
66143;SDS011;52947;50.842;6.084;2024-01-30T09:06:13;11.60;;;8.95;;
66143;SDS011;52947;50.842;6.084;2024-01-30T09:08:41;16.23;;;8.60;;
66143;SDS011;52947;50.842;6.084;2024-01-30T09:11:09;14.50;;;8.10;;
66143;SDS011;52947;50.842;6.084;2024-01-30T09:13:38;17.63;;;8.60;;
66143;SDS011;52947;50.842;6.084;2024-01-30T09:16:06;14.38;;;9.05;;
66143;SDS011;52947;50.842;6.084;2024-01-30T09:18:36;14.95;;;8.63;;
66143;SDS011;52947;50.842;6.084;2024-01-30T09:21:04;13.68;;;7.75;;
66143;SDS011;52947;50.842;6.084;2024-01-30T09:23:32;14.55;;;8.57;;
66143;SDS011;52947;50.842;6.084;2024-01-30T09:26:00;19.73;;;9.13;;
66143;SDS011;52947;50.842;6.084;2024-01-30T09:28:28;13.45;;;8.15;;
66143;SDS011;52947;50.842;6.084;2024-01-30T09:30:56;18.63;;;9.38;;
66143;SDS011;52947;50.842;6.084;2024-01-30T09:33:25;13.25;;;6.97;;
66143;SDS011;52947;50.842;6.084;2024-01-30T09:35:54;17.05;;;7.90;;
66143;SDS011;52947;50.842;6.084;2024-01-30T09:38:22;14.60;;;8.57;;
66143;SDS011;52947;50.842;6.084;2024-01-30T09:40:53;13.85;;;8.13;;
66143;SDS011;52947;50.842;6.084;2024-01-30T09:43:22;13.32;;;7.93;;
66143;SDS011;52947;50.842;6.084;2024-01-30T09:45:53;15.23;;;7.88;;
66143;SDS011;52947;50.842;6.084;2024-01-30T09:48:23;19.85;;;8.57;;
66143;SDS011;52947;50.842;6.084;2024-01-30T09:50:54;16.75;;;7.63;;
66143;SDS011;52947;50.842;6.084;2024-01-30T09:53:23;12.38;;;7.45;;
66143;SDS011;52947;50.842;6.084;2024-01-30T09:55:52;17.92;;;9.35;;
66143;SDS011;52947;50.842;6.084;2024-01-30T09:58:20;13.15;;;6.43;;
66143;SDS011;52947;50.842;6.084;2024-01-30T10:00:49;29.08;;;8.18;;
66143;SDS011;52947;50.842;6.084;2024-01-30T10:03:17;20.02;;;7.75;;
66143;SDS011;52947;50.842;6.084;2024-01-30T10:05:46;15.65;;;8.98;;
66143;SDS011;52947;50.842;6.084;2024-01-30T10:08:20;12.32;;;7.50;;
66143;SDS011;52947;50.842;6.084;2024-01-30T10:10:48;16.42;;;8.73;;
66143;SDS011;52947;50.842;6.084;2024-01-30T10:13:17;15.88;;;7.65;;
66143;SDS011;52947;50.842;6.084;2024-01-30T10:15:47;15.70;;;8.20;;
66143;SDS011;52947;50.842;6.084;2024-01-30T10:18:15;18.33;;;7.68;;
66143;SDS011;52947;50.842;6.084;2024-01-30T10:20:43;16.88;;;8.32;;
66143;SDS011;52947;50.842;6.084;2024-01-30T10:23:11;15.65;;;8.30;;
66143;SDS011;52947;50.842;6.084;2024-01-30T10:25:40;13.43;;;7.25;;
66143;SDS011;52947;50.842;6.084;2024-01-30T10:28:09;15.25;;;8.23;;
66143;SDS011;52947;50.842;6.084;2024-01-30T10:30:37;16.98;;;9.05;;
66143;SDS011;52947;50.842;6.084;2024-01-30T10:33:05;16.45;;;8.95;;
66143;SDS011;52947;50.842;6.084;2024-01-30T10:35:33;22.80;;;8.95;;
66143;SDS011;52947;50.842;6.084;2024-01-30T10:38:01;17.42;;;9.60;;
66143;SDS011;52947;50.842;6.084;2024-01-30T10:40:30;18.55;;;10.13;;
66143;SDS011;52947;50.842;6.084;2024-01-30T10:43:00;11.38;;;8.45;;
66143;SDS011;52947;50.842;6.084;2024-01-30T10:45:31;18.35;;;8.18;;
66143;SDS011;52947;50.842;6.084;2024-01-30T10:47:59;17.35;;;8.65;;
66143;SDS011;52947;50.842;6.084;2024-01-30T10:50:29;21.50;;;8.65;;
66143;SDS011;52947;50.842;6.084;2024-01-30T10:52:59;16.92;;;8.88;;
66143;SDS011;52947;50.842;6.084;2024-01-30T10:55:28;12.57;;;8.13;;
66143;SDS011;52947;50.842;6.084;2024-01-30T10:57:57;18.33;;;8.75;;
66143;SDS011;52947;50.842;6.084;2024-01-30T11:00:27;18.90;;;7.93;;
66143;SDS011;52947;50.842;6.084;2024-01-30T11:02:56;17.27;;;9.20;;
66143;SDS011;52947;50.842;6.084;2024-01-30T11:05:24;16.75;;;8.05;;
66143;SDS011;52947;50.842;6.084;2024-01-30T11:07:59;20.92;;;8.18;;
66143;SDS011;52947;50.842;6.084;2024-01-30T11:10:44;20.27;;;8.90;;
66143;SDS011;52947;50.842;6.084;2024-01-30T11:13:13;23.92;;;8.35;;
66143;SDS011;52947;50.842;6.084;2024-01-30T11:15:43;17.80;;;8.85;;
66143;SDS011;52947;50.842;6.084;2024-01-30T11:18:11;21.20;;;8.70;;
66143;SDS011;52947;50.842;6.084;2024-01-30T11:20:39;18.27;;;9.25;;
66143;SDS011;52947;50.842;6.084;2024-01-30T11:23:14;19.95;;;10.60;;
66143;SDS011;52947;50.842;6.084;2024-01-30T11:25:43;18.55;;;9.10;;
66143;SDS011;52947;50.842;6.084;2024-01-30T11:28:14;20.75;;;9.10;;
66143;SDS011;52947;50.842;6.084;2024-01-30T11:30:44;20.85;;;10.43;;
66143;SDS011;52947;50.842;6.084;2024-01-30T11:33:14;22.38;;;10.63;;
66143;SDS011;52947;50.842;6.084;2024-01-30T11:35:43;20.38;;;9.43;;
66143;SDS011;52947;50.842;6.084;2024-01-30T11:38:13;15.93;;;9.02;;
66143;SDS011;52947;50.842;6.084;2024-01-30T11:40:42;19.30;;;10.00;;
66143;SDS011;52947;50.842;6.084;2024-01-30T11:43:11;14.10;;;8.48;;
66143;SDS011;52947;50.842;6.084;2024-01-30T11:45:39;23.80;;;10.07;;
66143;SDS011;52947;50.842;6.084;2024-01-30T11:48:08;24.50;;;9.40;;
66143;SDS011;52947;50.842;6.084;2024-01-30T11:50:39;16.75;;;9.57;;
66143;SDS011;52947;50.842;6.084;2024-01-30T11:53:07;22.00;;;10.00;;
66143;SDS011;52947;50.842;6.084;2024-01-30T11:55:36;21.10;;;9.32;;
66143;SDS011;52947;50.842;6.084;2024-01-30T11:58:04;21.27;;;10.43;;
66143;SDS011;52947;50.842;6.084;2024-01-30T12:00:33;19.67;;;10.85;;
66143;SDS011;52947;50.842;6.084;2024-01-30T12:03:02;21.65;;;10.60;;
66143;SDS011;52947;50.842;6.084;2024-01-30T12:05:34;22.73;;;10.82;;
66143;SDS011;52947;50.842;6.084;2024-01-30T12:08:03;28.70;;;12.13;;
66143;SDS011;52947;50.842;6.084;2024-01-30T12:10:32;20.67;;;11.43;;
66143;SDS011;52947;50.842;6.084;2024-01-30T12:13:00;23.08;;;11.00;;
66143;SDS011;52947;50.842;6.084;2024-01-30T12:15:29;21.67;;;11.48;;
66143;SDS011;52947;50.842;6.084;2024-01-30T12:18:04;20.75;;;12.85;;
66143;SDS011;52947;50.842;6.084;2024-01-30T12:20:35;20.63;;;10.57;;
66143;SDS011;52947;50.842;6.084;2024-01-30T12:23:03;29.92;;;11.48;;
66143;SDS011;52947;50.842;6.084;2024-01-30T12:25:31;20.10;;;11.25;;
66143;SDS011;52947;50.842;6.084;2024-01-30T12:28:00;25.27;;;11.60;;
66143;SDS011;52947;50.842;6.084;2024-01-30T12:30:28;24.02;;;11.88;;
66143;SDS011;52947;50.842;6.084;2024-01-30T12:32:56;17.67;;;10.52;;
66143;SDS011;52947;50.842;6.084;2024-01-30T12:35:25;19.65;;;10.95;;
66143;SDS011;52947;50.842;6.084;2024-01-30T12:37:59;17.10;;;10.23;;
66143;SDS011;52947;50.842;6.084;2024-01-30T12:40:27;28.75;;;12.07;;
66143;SDS011;52947;50.842;6.084;2024-01-30T12:42:57;29.40;;;13.05;;
66143;SDS011;52947;50.842;6.084;2024-01-30T12:45:25;19.65;;;12.07;;
66143;SDS011;52947;50.842;6.084;2024-01-30T12:47:53;20.75;;;11.98;;
66143;SDS011;52947;50.842;6.084;2024-01-30T12:50:21;20.05;;;11.20;;
66143;SDS011;52947;50.842;6.084;2024-01-30T12:52:49;24.48;;;12.25;;
66143;SDS011;52947;50.842;6.084;2024-01-30T12:55:19;26.27;;;13.30;;
66143;SDS011;52947;50.842;6.084;2024-01-30T12:57:47;19.08;;;11.80;;
66143;SDS011;52947;50.842;6.084;2024-01-30T13:00:15;29.77;;;11.43;;
66143;SDS011;52947;50.842;6.084;2024-01-30T13:02:44;25.10;;;11.38;;
66143;SDS011;52947;50.842;6.084;2024-01-30T13:05:12;28.00;;;12.35;;
66143;SDS011;52947;50.842;6.084;2024-01-30T13:07:41;28.52;;;14.27;;
66143;SDS011;52947;50.842;6.084;2024-01-30T13:10:09;26.23;;;12.32;;
66143;SDS011;52947;50.842;6.084;2024-01-30T13:12:38;25.58;;;13.45;;
66143;SDS011;52947;50.842;6.084;2024-01-30T13:15:06;25.33;;;11.85;;
66143;SDS011;52947;50.842;6.084;2024-01-30T13:17:35;25.33;;;12.90;;
66143;SDS011;52947;50.842;6.084;2024-01-30T13:20:04;20.35;;;10.73;;
66143;SDS011;52947;50.842;6.084;2024-01-30T13:22:37;25.95;;;13.30;;
66143;SDS011;52947;50.842;6.084;2024-01-30T13:25:06;24.67;;;13.00;;
66143;SDS011;52947;50.842;6.084;2024-01-30T13:27:35;20.60;;;11.68;;
66143;SDS011;52947;50.842;6.084;2024-01-30T13:30:06;25.63;;;14.82;;
66143;SDS011;52947;50.842;6.084;2024-01-30T13:32:35;24.88;;;11.57;;
66143;SDS011;52947;50.842;6.084;2024-01-30T13:35:04;22.77;;;12.90;;
66143;SDS011;52947;50.842;6.084;2024-01-30T13:37:32;22.10;;;12.57;;
66143;SDS011;52947;50.842;6.084;2024-01-30T13:40:01;24.33;;;13.55;;
66143;SDS011;52947;50.842;6.084;2024-01-30T13:42:33;23.70;;;13.50;;
66143;SDS011;52947;50.842;6.084;2024-01-30T13:45:01;23.35;;;12.65;;
66143;SDS011;52947;50.842;6.084;2024-01-30T13:47:31;21.90;;;11.48;;
66143;SDS011;52947;50.842;6.084;2024-01-30T13:50:18;28.52;;;13.98;;
66143;SDS011;52947;50.842;6.084;2024-01-30T13:52:45;24.38;;;11.93;;
66143;SDS011;52947;50.842;6.084;2024-01-30T13:55:14;22.63;;;10.57;;
66143;SDS011;52947;50.842;6.084;2024-01-30T13:57:42;21.58;;;11.95;;
66143;SDS011;52947;50.842;6.084;2024-01-30T14:00:12;31.60;;;11.77;;
66143;SDS011;52947;50.842;6.084;2024-01-30T14:02:44;27.80;;;12.50;;
66143;SDS011;52947;50.842;6.084;2024-01-30T14:05:12;33.60;;;12.18;;
66143;SDS011;52947;50.842;6.084;2024-01-30T14:07:41;23.65;;;12.48;;
66143;SDS011;52947;50.842;6.084;2024-01-30T14:10:11;29.42;;;12.82;;
66143;SDS011;52947;50.842;6.084;2024-01-30T14:12:41;26.30;;;11.90;;
66143;SDS011;52947;50.842;6.084;2024-01-30T14:15:10;24.48;;;13.27;;
66143;SDS011;52947;50.842;6.084;2024-01-30T14:17:54;22.75;;;12.27;;
66143;SDS011;52947;50.842;6.084;2024-01-30T14:20:23;29.05;;;11.57;;
66143;SDS011;52947;50.842;6.084;2024-01-30T14:22:51;18.65;;;11.23;;
66143;SDS011;52947;50.842;6.084;2024-01-30T14:25:19;23.15;;;11.85;;
66143;SDS011;52947;50.842;6.084;2024-01-30T14:27:48;34.97;;;13.10;;
66143;SDS011;52947;50.842;6.084;2024-01-30T14:30:16;38.90;;;14.23;;
66143;SDS011;52947;50.842;6.084;2024-01-30T14:32:44;26.52;;;12.68;;
66143;SDS011;52947;50.842;6.084;2024-01-30T14:35:15;24.20;;;12.07;;
66143;SDS011;52947;50.842;6.084;2024-01-30T14:37:43;24.45;;;10.55;;
66143;SDS011;52947;50.842;6.084;2024-01-30T14:40:11;29.77;;;10.75;;
66143;SDS011;52947;50.842;6.084;2024-01-30T14:42:39;29.42;;;10.13;;